Time;durP1;ratioP1;P1;durP2;ratioP2;P2;SDS_P1;SDS_P2;PMS_P1;PMS_P2;Temp;Humidity;BMP_temperature;BMP_pressure;BME280_temperature;BME280_humidity;BME280_pressure;Samples;Min_cycle;Max_cycle;Signal;HPM_P1;HPM_P2
2023/01/07 00:01:03;;;;;;;1.73;1.30;;;;;;;9.51;100.00;98670.28;5088960;28;20213;-79
2023/01/07 00:03:30;;;;;;;2.20;1.60;;;;;;;9.51;100.00;98662.38;5090929;28;20238;-78
2023/01/07 00:05:59;;;;;;;1.33;1.17;;;;;;;9.49;100.00;98659.81;5090992;28;20224;-79
2023/01/07 00:08:29;;;;;;;1.40;1.30;;;;;;;9.48;100.00;98667.84;5091935;28;20210;-81
2023/01/07 00:10:55;;;;;;;1.57;1.47;;;;;;;9.45;100.00;98665.34;5076173;28;20208;-79
2023/01/07 00:13:22;;;;;;;1.70;1.30;;;;;;;9.48;100.00;98666.03;5088353;22;20242;-77
2023/01/07 00:15:48;;;;;;;1.40;1.30;;;;;;;9.47;100.00;98659.06;5072098;28;20210;-77
2023/01/07 00:18:15;;;;;;;1.43;1.33;;;;;;;9.47;100.00;98660.81;5072305;28;20753;-77
2023/01/07 00:20:41;;;;;;;2.17;1.60;;;;;;;9.53;100.00;98660.47;5071350;28;20203;-77
2023/01/07 00:23:07;;;;;;;2.43;1.50;;;;;;;9.57;100.00;98660.25;5071908;28;20212;-77
2023/01/07 00:25:35;;;;;;;1.90;1.50;;;;;;;9.60;100.00;98648.66;5071807;28;20234;-77
2023/01/07 00:28:02;;;;;;;1.63;1.20;;;;;;;9.55;100.00;98645.44;5072448;28;20689;-77
2023/01/07 00:30:28;;;;;;;1.90;1.50;;;;;;;9.51;100.00;98638.63;5071358;28;20207;-77
2023/01/07 00:33:03;;;;;;;1.57;1.47;;;;;;;9.51;100.00;98649.19;5071962;28;20212;-77
2023/01/07 00:35:30;;;;;;;1.70;1.37;;;;;;;9.51;100.00;98641.25;5071808;28;20254;-77
2023/01/07 00:37:56;;;;;;;2.53;1.43;;;;;;;9.53;100.00;98634.97;5071653;28;20214;-77
2023/01/07 00:40:23;;;;;;;1.63;1.50;;;;;;;9.51;100.00;98638.63;5070808;28;20216;-77
2023/01/07 00:42:54;;;;;;;2.13;1.50;;;;;;;9.52;100.00;98629.75;5071644;28;20852;-77
2023/01/07 00:45:20;;;;;;;1.97;1.43;;;;;;;9.48;100.00;98633.53;5071568;28;20269;-77
2023/01/07 00:47:46;;;;;;;1.90;1.70;;;;;;;9.48;100.00;98628.25;5071648;28;20210;-76
2023/01/07 00:50:13;;;;;;;1.50;1.40;;;;;;;9.48;100.00;98629.09;5070773;28;20214;-77
2023/01/07 00:52:40;;;;;;;1.60;1.50;;;;;;;9.50;100.00;98624.59;5071439;28;20718;-77
2023/01/07 00:55:09;;;;;;;1.83;1.43;;;;;;;9.50;100.00;98626.38;5071242;28;20223;-77
2023/01/07 00:57:36;;;;;;;1.63;1.40;;;;;;;9.47;100.00;98616.84;5071635;28;20622;-77
2023/01/07 01:00:04;;;;;;;1.80;1.50;;;;;;;9.47;100.00;98623.88;5070619;28;20207;-77
2023/01/07 01:02:31;;;;;;;1.70;1.57;;;;;;;9.45;100.00;98623.13;5071367;28;20235;-77
2023/01/07 01:04:57;;;;;;;2.10;1.70;;;;;;;9.43;100.00;98625.03;5071377;28;20258;-77
2023/01/07 01:07:24;;;;;;;3.73;1.67;;;;;;;9.43;100.00;98625.03;5071089;28;20233;-76
2023/01/07 01:09:50;;;;;;;2.20;1.60;;;;;;;9.45;100.00;98620.50;5070727;28;20210;-76
2023/01/07 01:12:17;;;;;;;2.97;1.73;;;;;;;9.44;100.00;98616.16;5071382;28;20204;-77
2023/01/07 01:14:44;;;;;;;1.87;1.60;;;;;;;9.46;100.00;98609.00;5071062;28;20246;-77
2023/01/07 01:17:11;;;;;;;1.50;1.40;;;;;;;9.46;100.00;98604.59;5071152;28;20675;-76
2023/01/07 01:19:38;;;;;;;1.63;1.40;;;;;;;9.44;99.56;98605.63;5070263;28;20689;-77
2023/01/07 01:22:05;;;;;;;1.83;1.47;;;;;;;9.47;99.79;98608.94;5071136;28;20208;-77
2023/01/07 01:24:31;;;;;;;1.77;1.43;;;;;;;9.41;100.00;98611.91;5071358;28;20239;-76
2023/01/07 01:26:58;;;;;;;1.80;1.50;;;;;;;9.47;100.00;98613.34;5071030;28;20230;-75
2023/01/07 01:29:24;;;;;;;2.33;1.50;;;;;;;9.47;100.00;98614.19;5070492;28;20582;-75
2023/01/07 01:31:51;;;;;;;1.70;1.40;;;;;;;9.42;100.00;98612.78;5071115;28;20213;-76
2023/01/07 01:34:19;;;;;;;1.47;1.37;;;;;;;9.46;100.00;98603.72;5071081;28;20317;-76
2023/01/07 01:36:45;;;;;;;1.50;1.30;;;;;;;9.45;100.00;98610.81;5070900;28;20208;-76
2023/01/07 01:39:12;;;;;;;2.10;1.70;;;;;;;9.45;100.00;98615.22;5070506;28;20221;-75
2023/01/07 01:41:38;;;;;;;2.13;1.23;;;;;;;9.51;100.00;98614.88;5070887;28;20854;-75
2023/01/07 01:44:33;;;;;;;2.43;1.30;;;;;;;9.46;100.00;98609.88;5070982;28;20239;-76
2023/01/07 01:47:01;;;;;;;1.37;1.20;;;;;;;9.44;100.00;98603.84;5070801;28;20231;-75
2023/01/07 01:49:32;;;;;;;1.40;1.30;;;;;;;9.45;100.00;98602.03;5070422;28;20211;-76
2023/01/07 01:52:02;;;;;;;1.20;1.10;;;;;;;9.45;100.00;98602.03;5070663;28;20206;-76
2023/01/07 01:54:29;;;;;;;1.40;1.10;;;;;;;9.41;100.00;98595.22;5071023;28;20231;-76
2023/01/07 01:56:59;;;;;;;1.80;1.20;;;;;;;9.40;100.00;98598.81;5070845;28;20692;-76
2023/01/07 01:59:31;;;;;;;1.70;1.60;;;;;;;9.36;100.00;98602.56;5069376;28;20211;-75
2023/01/07 02:01:58;;;;;;;2.20;1.87;;;;;;;9.32;100.00;98606.31;5070707;28;20214;-76
2023/01/07 02:04:27;;;;;;;2.13;1.60;;;;;;;9.31;100.00;98604.63;5070667;28;20677;-75
2023/01/07 02:07:04;;;;;;;2.57;1.70;;;;;;;9.30;100.00;98600.28;5070706;28;20227;-76
2023/01/07 02:09:31;;;;;;;1.60;1.50;;;;;;;9.26;100.00;98596.09;5070122;28;20212;-76
2023/01/07 02:12:08;;;;;;;2.20;1.87;;;;;;;9.23;100.00;98591.84;5070678;28;20211;-75
2023/01/07 02:14:50;;;;;;;1.70;1.60;;;;;;;9.25;100.00;98589.13;5070609;28;20245;-76
2023/01/07 02:17:29;;;;;;;1.47;1.37;;;;;;;9.26;100.00;98590.84;5070775;28;20210;-76
2023/01/07 02:20:16;;;;;;;2.13;1.60;;;;;;;9.28;100.00;98586.31;5070024;28;20285;-76
2023/01/07 02:23:07;;;;;;;2.20;1.53;;;;;;;9.29;100.00;98585.38;5070756;28;20301;-76
2023/01/07 02:26:04;;;;;;;1.50;1.40;;;;;;;9.26;100.00;98569.72;5070452;28;20207;-75
2023/01/07 02:29:10;;;;;;;1.67;1.40;;;;;;;9.23;100.00;98581.31;5029874;28;20540;-76
2023/01/07 02:32:03;;;;;;;1.40;1.27;;;;;;;9.22;100.00;98571.69;5072113;28;20221;-75
2023/01/07 02:34:40;;;;;;;1.67;1.33;;;;;;;9.23;100.00;98564.66;5074134;28;20232;-76
2023/01/07 02:37:14;;;;;;;2.00;1.60;;;;;;;9.31;100.00;98567.69;5073888;28;20200;-76
2023/01/07 02:39:56;;;;;;;1.70;1.57;;;;;;;9.33;100.00;98565.81;5073516;28;20207;-75
2023/01/07 02:42:33;;;;;;;1.70;1.37;;;;;;;9.31;100.00;98560.59;5074070;28;20681;-75
2023/01/07 02:45:04;;;;;;;1.90;1.60;;;;;;;9.32;100.00;98564.09;5073771;28;20789;-75
2023/01/07 02:47:37;;;;;;;2.00;1.47;;;;;;;9.34;100.00;98551.66;5073966;28;20240;-75
2023/01/07 02:50:05;;;;;;;1.70;1.50;;;;;;;9.34;100.00;98543.75;5073183;28;20203;-75
2023/01/07 02:52:33;;;;;;;2.20;1.67;;;;;;;9.32;100.00;98541.22;5073888;28;20587;-75
2023/01/07 02:55:04;;;;;;;2.00;1.37;;;;;;;9.31;100.00;98542.13;5073728;28;20231;-75
2023/01/07 02:57:56;;;;;;;2.30;1.50;;;;;;;9.31;100.00;98536.03;5073890;28;20206;-76
2023/01/07 03:00:40;;;;;;;1.60;1.50;;;;;;;9.33;100.00;98537.66;5073165;28;20215;-75
2023/01/07 03:03:19;;;;;;;1.50;1.40;;;;;;;9.28;100.00;98541.47;5073615;28;20206;-75
2023/01/07 03:05:57;;;;;;;1.97;1.60;;;;;;;9.25;100.00;98537.22;5073636;28;20217;-76
2023/01/07 03:08:44;;;;;;;2.67;1.50;;;;;;;9.22;100.00;98531.28;5073410;28;20236;-76
2023/01/07 03:11:12;;;;;;;2.00;1.60;;;;;;;9.21;100.00;98525.16;5072806;28;20685;-76
2023/01/07 03:13:44;;;;;;;2.70;1.57;;;;;;;9.17;100.00;98528.91;5073545;28;20245;-76
2023/01/07 03:16:15;;;;;;;1.73;1.30;;;;;;;9.17;100.00;98528.06;5073487;28;20210;-76
2023/01/07 03:18:48;;;;;;;2.50;1.67;;;;;;;9.16;100.00;98521.94;5073191;28;20209;-75
2023/01/07 03:21:17;;;;;;;1.47;1.33;;;;;;;9.14;100.00;98512.41;5073133;28;20215;-76
2023/01/07 03:23:49;;;;;;;1.87;1.67;;;;;;;9.10;100.00;98516.16;5073360;28;20231;-76
2023/01/07 03:26:20;;;;;;;1.70;1.40;;;;;;;9.06;100.00;98512.00;5073297;28;20241;-76
2023/01/07 03:28:48;;;;;;;1.60;1.27;;;;;;;9.08;100.00;98510.13;5072775;28;20211;-75
2023/01/07 03:31:15;;;;;;;1.47;1.37;;;;;;;9.12;100.00;98503.75;5072687;28;20233;-75
2023/01/07 03:33:51;;;;;;;1.10;1.00;;;;;;;9.10;100.00;98500.34;5073111;28;20225;-76
2023/01/07 03:36:22;;;;;;;1.67;1.50;;;;;;;9.09;100.00;98488.09;5072985;28;20216;-75
2023/01/07 03:38:50;;;;;;;1.20;1.10;;;;;;;9.10;100.00;98487.16;5072371;28;20220;-76
2023/01/07 03:43:58;;;;;;;1.50;1.40;;;;;;;9.10;100.00;98489.78;5071614;28;20226;-76
2023/01/07 03:46:24;;;;;;;1.33;1.23;;;;;;;9.11;100.00;98491.50;5072770;28;20242;-75
2023/01/07 03:48:52;;;;;;;1.73;1.57;;;;;;;9.07;100.00;98493.44;5072347;28;20214;-76
2023/01/07 03:51:19;;;;;;;1.30;1.20;;;;;;;9.10;100.00;98488.00;5072651;28;20220;-76
2023/01/07 03:53:45;;;;;;;1.37;1.27;;;;;;;9.07;100.00;98488.16;5072480;28;20227;-76
2023/01/07 03:56:12;;;;;;;1.43;1.33;;;;;;;9.06;100.00;98490.91;5072461;28;20200;-75
2023/01/07 03:58:38;;;;;;;1.53;1.40;;;;;;;9.07;100.00;98482.91;5072339;28;20832;-75
2023/01/07 04:01:04;;;;;;;1.77;1.33;;;;;;;9.09;100.00;98478.41;5072044;28;20217;-76
2023/01/07 04:03:31;;;;;;;1.30;1.20;;;;;;;9.09;100.00;98473.13;5072265;28;20584;-76
2023/01/07 04:05:59;;;;;;;1.30;1.20;;;;;;;9.09;100.00;98467.84;5072550;28;20578;-76
2023/01/07 04:08:25;;;;;;;1.50;1.33;;;;;;;9.11;100.00;98465.13;5072225;28;20212;-75
2023/01/07 04:10:52;;;;;;;1.00;1.00;;;;;;;9.10;100.00;98464.28;5071397;28;20210;-75
2023/01/07 04:13:18;;;;;;;1.30;1.20;;;;;;;9.13;100.00;98455.34;5072145;28;20215;-76
2023/01/07 04:15:45;;;;;;;1.50;1.40;;;;;;;9.14;100.00;98459.66;5072142;28;20217;-75
2023/01/07 04:18:11;;;;;;;1.57;1.40;;;;;;;9.16;99.96;98452.50;5072132;28;20208;-75
2023/01/07 04:20:38;;;;;;;1.40;1.30;;;;;;;9.16;99.73;98447.25;5071304;28;20208;-76
2023/01/07 04:23:05;;;;;;;1.20;1.10;;;;;;;9.17;99.98;98448.97;5071938;28;20575;-75
2023/01/07 04:25:32;;;;;;;1.30;1.20;;;;;;;9.11;100.00;98452.78;5071959;28;20587;-75
2023/01/07 04:27:58;;;;;;;1.30;1.20;;;;;;;9.09;100.00;98451.19;5072184;28;20237;-75
2023/01/07 04:30:25;;;;;;;1.40;1.30;;;;;;;9.05;100.00;98447.03;5071227;28;20221;-76
2023/01/07 04:32:51;;;;;;;1.70;1.60;;;;;;;9.03;100.00;98441.84;5071750;28;20213;-76
2023/01/07 04:35:18;;;;;;;1.40;1.30;;;;;;;9.07;100.00;98447.78;5071855;28;20356;-76
2023/01/07 04:37:44;;;;;;;2.07;1.53;;;;;;;9.07;100.00;98439.88;5071734;28;20217;-75
2023/01/07 04:40:12;;;;;;;1.63;1.50;;;;;;;9.06;100.00;98446.94;5071023;28;20218;-76
2023/01/07 04:42:39;;;;;;;1.60;1.40;;;;;;;9.06;100.00;98440.81;5071916;28;20681;-76
2023/01/07 04:45:06;;;;;;;1.70;1.60;;;;;;;9.02;100.00;98434.88;5071922;28;20590;-75
2023/01/07 04:47:33;;;;;;;1.67;1.50;;;;;;;9.01;100.00;98437.59;5071510;28;20240;-75
2023/01/07 04:49:59;;;;;;;1.90;1.80;;;;;;;9.01;100.00;98438.44;5070718;28;20209;-75
2023/01/07 04:52:26;;;;;;;2.43;1.90;;;;;;;9.00;100.00;98430.63;5071305;28;20648;-74
2023/01/07 04:54:52;;;;;;;1.70;1.60;;;;;;;8.99;100.00;98435.03;5070914;28;20225;-75
2023/01/07 04:57:20;;;;;;;2.27;2.07;;;;;;;8.94;100.00;98431.81;5071522;28;20205;-75
2023/01/07 04:59:46;;;;;;;2.17;1.97;;;;;;;8.93;100.00;98424.03;5070881;28;20203;-76
2023/01/07 05:02:13;;;;;;;1.80;1.70;;;;;;;8.92;100.00;98427.56;5071483;28;20212;-76
2023/01/07 05:04:39;;;;;;;2.30;1.80;;;;;;;8.85;100.00;98423.59;5071347;28;20238;-76
2023/01/07 05:07:06;;;;;;;2.00;1.80;;;;;;;8.84;100.00;98429.81;5071147;28;20274;-76
2023/01/07 05:09:33;;;;;;;2.17;1.97;;;;;;;8.82;100.00;98429.88;5070778;28;20577;-75
2023/01/07 05:11:59;;;;;;;1.90;1.67;;;;;;;8.83;100.00;98417.56;5071451;28;20205;-76
2023/01/07 05:14:27;;;;;;;1.80;1.70;;;;;;;8.83;100.00;98412.31;5071222;28;20247;-76
2023/01/07 05:16:54;;;;;;;2.60;1.80;;;;;;;8.80;100.00;98412.47;5071157;28;20215;-76
2023/01/07 05:19:21;;;;;;;2.43;2.10;;;;;;;8.80;100.00;98413.31;5070403;28;20215;-76
2023/01/07 05:21:48;;;;;;;2.10;1.90;;;;;;;8.80;100.00;98417.72;5071369;28;20210;-76
2023/01/07 05:24:14;;;;;;;2.80;1.80;;;;;;;8.76;100.00;98413.59;5071384;28;20230;-75
2023/01/07 05:26:41;;;;;;;2.17;1.97;;;;;;;8.78;100.00;98406.44;5070957;28;20235;-76
2023/01/07 05:29:09;;;;;;;2.37;2.17;;;;;;;8.78;100.00;98409.06;5070607;28;20210;-75
2023/01/07 05:31:39;;;;;;;2.30;2.10;;;;;;;8.73;100.00;98400.59;5071086;28;20589;-75
2023/01/07 05:34:06;;;;;;;2.10;1.77;;;;;;;8.72;100.00;98402.38;5070953;28;20671;-75
2023/01/07 05:36:33;;;;;;;1.93;1.73;;;;;;;8.71;100.00;98399.84;5071005;28;20214;-75
2023/01/07 05:38:59;;;;;;;1.90;1.80;;;;;;;8.68;100.00;98397.34;5070587;28;20220;-75
2023/01/07 05:41:26;;;;;;;2.00;1.80;;;;;;;8.67;100.00;98395.66;5071299;28;20216;-76
2023/01/07 05:43:52;;;;;;;2.90;2.30;;;;;;;8.65;100.00;98400.19;5071073;28;20314;-76
2023/01/07 05:46:19;;;;;;;2.40;2.20;;;;;;;8.67;100.00;98385.13;5071240;28;20636;-75
2023/01/07 05:48:47;;;;;;;2.33;2.13;;;;;;;8.70;100.00;98384.97;5070287;28;20238;-75
2023/01/07 05:51:13;;;;;;;2.30;2.10;;;;;;;8.69;100.00;98383.28;5070872;28;20205;-75
2023/01/07 05:53:40;;;;;;;3.10;2.10;;;;;;;8.71;100.00;98376.13;5071072;28;20253;-75
2023/01/07 05:56:07;;;;;;;2.43;2.10;;;;;;;8.70;100.00;98369.97;5070830;28;20217;-76
2023/01/07 05:58:33;;;;;;;2.20;1.90;;;;;;;8.73;100.00;98371.59;5070802;28;20290;-75
2023/01/07 06:01:00;;;;;;;2.57;2.07;;;;;;;8.74;100.00;98366.25;5070035;28;20567;-75
2023/01/07 06:03:26;;;;;;;2.63;2.43;;;;;;;8.76;100.00;98368.81;5070567;28;20597;-75
2023/01/07 06:05:54;;;;;;;2.83;2.30;;;;;;;8.76;100.00;98369.63;5071219;28;20211;-75
2023/01/07 06:08:20;;;;;;;2.97;2.23;;;;;;;8.74;100.00;98365.38;5074455;28;20231;-75
2023/01/07 06:10:47;;;;;;;2.60;2.23;;;;;;;8.68;100.00;98369.25;5073857;28;20206;-75
2023/01/07 06:13:13;;;;;;;2.47;2.27;;;;;;;8.64;100.00;98372.16;5074303;28;20211;-75
2023/01/07 06:15:40;;;;;;;2.73;2.53;;;;;;;8.56;100.00;98366.47;5074149;28;20679;-75
2023/01/07 06:18:06;;;;;;;4.10;2.53;;;;;;;8.56;100.00;98371.75;5074741;28;20235;-75
2023/01/07 06:20:33;;;;;;;2.43;2.17;;;;;;;8.55;100.00;98372.66;5073796;28;20211;-75
2023/01/07 06:23:01;;;;;;;2.47;2.27;;;;;;;8.51;100.00;98360.63;5074434;28;20269;-75
2023/01/07 06:25:28;;;;;;;3.60;2.73;;;;;;;8.51;100.00;98368.53;5074173;28;20231;-75
2023/01/07 06:27:56;;;;;;;4.33;2.37;;;;;;;8.55;100.00;98362.13;5074111;28;20606;-76
2023/01/07 06:30:22;;;;;;;2.33;2.13;;;;;;;8.54;100.00;98357.78;5073167;28;20226;-75
2023/01/07 06:32:49;;;;;;;3.17;2.50;;;;;;;8.56;100.00;98361.22;5073911;28;20218;-75
2023/01/07 06:35:16;;;;;;;2.60;2.40;;;;;;;8.57;100.00;98361.09;5074105;28;20247;-75
2023/01/07 06:37:42;;;;;;;2.60;2.13;;;;;;;8.57;100.00;98358.47;5074122;28;20201;-75
2023/01/07 06:40:11;;;;;;;2.60;2.40;;;;;;;8.57;100.00;98353.19;5073287;28;20210;-75
2023/01/07 06:42:38;;;;;;;3.50;2.67;;;;;;;8.59;100.00;98346.06;5073957;28;20302;-76
2023/01/07 06:45:05;;;;;;;3.20;2.20;;;;;;;8.60;100.00;98345.13;5073581;28;20234;-75
2023/01/07 06:47:31;;;;;;;2.40;2.20;;;;;;;8.63;100.00;98342.31;5073964;28;20237;-75
2023/01/07 06:49:58;;;;;;;2.50;2.30;;;;;;;8.64;100.00;98348.44;5073253;28;20208;-75
2023/01/07 06:52:24;;;;;;;2.40;2.20;;;;;;;8.62;100.00;98335.34;5073574;28;20403;-75
2023/01/07 06:54:51;;;;;;;2.60;2.40;;;;;;;8.58;100.00;98341.72;5073641;28;20238;-75
2023/01/07 06:57:18;;;;;;;2.23;2.03;;;;;;;8.61;100.00;98335.41;5073551;28;20205;-75
2023/01/07 06:59:45;;;;;;;2.53;2.23;;;;;;;8.64;100.00;98332.63;5072725;28;20210;-75
2023/01/07 07:02:17;;;;;;;2.30;1.93;;;;;;;8.66;100.00;98330.75;5073637;28;20209;-76
2023/01/07 07:04:44;;;;;;;1.93;1.83;;;;;;;8.65;100.00;98324.63;5073677;28;20245;-75
2023/01/07 07:07:10;;;;;;;2.20;2.00;;;;;;;8.68;100.00;98328.84;5073604;28;20213;-75
2023/01/07 07:09:37;;;;;;;2.13;2.00;;;;;;;8.65;100.00;98329.91;5072730;28;20305;-75
2023/01/07 07:12:04;;;;;;;2.43;2.23;;;;;;;8.67;100.00;98327.16;5073285;28;20582;-75
2023/01/07 07:14:31;;;;;;;3.03;1.80;;;;;;;8.67;100.00;98319.25;5073225;28;20243;-75
2023/01/07 07:16:58;;;;;;;2.10;1.90;;;;;;;8.68;100.00;98318.31;5073027;28;20221;-75
2023/01/07 07:19:24;;;;;;;2.43;2.00;;;;;;;8.70;100.00;98311.19;5072811;28;20577;-75
2023/01/07 07:21:51;;;;;;;2.80;2.10;;;;;;;8.70;100.00;98313.81;5073334;28;20214;-75
2023/01/07 07:24:17;;;;;;;2.50;2.30;;;;;;;8.72;100.00;98325.97;5073102;28;20230;-75
2023/01/07 07:26:44;;;;;;;3.50;2.20;;;;;;;8.71;100.00;98320.78;5073000;28;20208;-75
2023/01/07 07:29:11;;;;;;;2.47;2.20;;;;;;;8.69;100.00;98312.13;5072408;28;20331;-75
2023/01/07 07:31:38;;;;;;;2.30;2.00;;;;;;;8.72;100.00;98314.56;5073215;28;20220;-75
2023/01/07 07:34:05;;;;;;;1.80;1.70;;;;;;;8.75;100.00;98303.88;5072892;28;20241;-75
2023/01/07 07:36:31;;;;;;;1.70;1.40;;;;;;;8.74;100.00;98299.50;5073029;28;20210;-75
2023/01/07 07:38:58;;;;;;;1.40;1.30;;;;;;;8.77;97.78;98296.72;5072614;28;20217;-76
2023/01/07 07:41:24;;;;;;;1.57;1.40;;;;;;;8.79;97.38;98298.31;5073502;28;20211;-75
2023/01/07 07:43:51;;;;;;;1.37;1.27;;;;;;;8.82;96.74;98292.03;5073130;28;20241;-75
2023/01/07 07:46:17;;;;;;;1.60;1.47;;;;;;;8.76;95.33;98287.13;5072918;28;20213;-76
2023/01/07 07:48:48;;;;;;;1.97;1.50;;;;;;;8.72;95.07;98293.50;5072313;28;20875;-76
2023/01/07 07:51:15;;;;;;;1.87;1.50;;;;;;;8.76;94.72;98284.47;5072459;28;20204;-75
2023/01/07 07:53:41;;;;;;;2.53;1.10;;;;;;;8.76;94.47;98282.66;5072444;28;20227;-76
2023/01/07 07:56:08;;;;;;;1.13;1.03;;;;;;;8.76;94.26;98287.13;5072671;28;20202;-75
2023/01/07 07:58:35;;;;;;;1.33;1.20;;;;;;;8.78;94.14;98282.59;5072352;28;20217;-75
2023/01/07 08:01:02;;;;;;;1.20;1.10;;;;;;;8.83;92.49;98285.81;5071902;28;20580;-75
2023/01/07 08:03:28;;;;;;;1.20;1.10;;;;;;;8.82;92.20;98278.84;5072333;28;20224;-76
2023/01/07 08:05:56;;;;;;;1.23;1.13;;;;;;;8.81;91.93;98279.78;5072400;28;20213;-78
2023/01/07 08:08:22;;;;;;;1.20;1.10;;;;;;;8.83;91.83;98280.53;5072346;28;20229;-76
2023/01/07 08:10:49;;;;;;;1.87;1.30;;;;;;;8.81;91.73;98277.97;5071696;28;20683;-76
2023/01/07 08:13:15;;;;;;;1.30;1.20;;;;;;;8.83;91.70;98276.13;5072033;28;20733;-77
2023/01/07 08:15:42;;;;;;;1.30;1.17;;;;;;;8.86;91.44;98269.78;5072396;28;20210;-78
2023/01/07 08:18:09;;;;;;;1.30;1.20;;;;;;;8.82;91.45;98273.56;5072181;28;20217;-77
2023/01/07 08:20:37;;;;;;;1.30;1.20;;;;;;;8.84;91.81;98266.41;5071403;28;20563;-77
2023/01/07 08:23:06;;;;;;;1.10;1.10;;;;;;;8.91;91.35;98262.47;5072338;28;20209;-76
2023/01/07 08:25:34;;;;;;;1.30;1.20;;;;;;;8.94;91.21;98257.00;5072107;28;20213;-76
2023/01/07 08:28:01;;;;;;;1.20;1.10;;;;;;;8.96;91.10;98263.03;5071985;28;20237;-75
2023/01/07 08:30:28;;;;;;;1.40;1.30;;;;;;;9.01;91.55;98268.88;5070634;28;20287;-76
2023/01/07 08:32:56;;;;;;;1.30;1.20;;;;;;;9.01;90.78;98268.88;5071798;28;20211;-75
2023/01/07 08:35:22;;;;;;;1.03;1.03;;;;;;;8.97;90.58;98257.69;5071561;28;20225;-76
2023/01/07 08:37:49;;;;;;;1.57;1.30;;;;;;;9.01;90.27;98263.59;5071672;28;20203;-76
2023/01/07 08:40:17;;;;;;;1.53;1.43;;;;;;;9.05;90.01;98263.31;5071188;28;20574;-76
2023/01/07 08:42:44;;;;;;;1.50;1.40;;;;;;;9.07;90.45;98263.22;5071760;28;20207;-76
2023/01/07 08:45:11;;;;;;;1.50;1.40;;;;;;;9.06;90.60;98257.09;5071547;28;20223;-76
2023/01/07 08:47:38;;;;;;;2.53;1.57;;;;;;;9.07;91.03;98257.97;5071453;28;20217;-74
2023/01/07 08:50:05;;;;;;;1.57;1.47;;;;;;;9.07;91.10;98247.41;5070994;28;20210;-78
2023/01/07 08:52:31;;;;;;;1.97;1.77;;;;;;;9.10;91.38;98257.75;5071533;28;20222;-75
2023/01/07 08:54:58;;;;;;;1.50;1.40;;;;;;;9.13;91.23;98247.03;5071587;28;20229;-75
2023/01/07 08:57:26;;;;;;;1.83;1.63;;;;;;;9.11;90.91;98248.94;5071637;28;20327;-74
2023/01/07 08:59:52;;;;;;;1.60;1.50;;;;;;;9.13;90.74;98252.31;5070678;28;20220;-77
2023/01/07 09:02:19;;;;;;;2.17;1.50;;;;;;;9.18;90.69;98247.63;5071385;28;20207;-79
2023/01/07 09:04:46;;;;;;;1.93;1.60;;;;;;;9.18;90.68;98240.53;5071669;28;20227;-80
2023/01/07 09:07:12;;;;;;;1.63;1.50;;;;;;;9.24;90.36;98239.31;5071648;28;20213;-78
2023/01/07 09:09:40;;;;;;;2.10;1.67;;;;;;;9.23;90.76;98245.53;5070717;28;20233;-77
2023/01/07 09:12:07;;;;;;;2.00;1.70;;;;;;;9.29;90.27;98239.84;5071105;28;20221;-77
2023/01/07 09:14:35;;;;;;;1.60;1.50;;;;;;;9.33;90.39;98244.00;5071173;28;20277;-76
2023/01/07 09:17:01;;;;;;;2.10;1.90;;;;;;;9.36;90.71;98246.47;5071191;28;20211;-77
2023/01/07 09:19:28;;;;;;;1.60;1.50;;;;;;;9.43;90.83;98250.41;5070772;28;20574;-77
2023/01/07 09:21:55;;;;;;;3.00;2.07;;;;;;;9.42;90.86;98243.44;5071375;28;20214;-80
2023/01/07 09:24:22;;;;;;;2.20;2.00;;;;;;;9.53;90.70;98233.91;5070829;28;20517;-82
2023/01/07 09:26:48;;;;;;;1.77;1.67;;;;;;;9.54;90.66;98235.59;5069512;28;20210;-83
2023/01/07 09:29:15;;;;;;;1.83;1.67;;;;;;;9.58;90.77;98238.88;5066586;28;20257;-83
2023/01/07 09:31:43;;;;;;;1.80;1.60;;;;;;;9.62;90.65;98241.22;5070336;28;20238;-78
2023/01/07 09:34:09;;;;;;;1.60;1.50;;;;;;;9.71;90.31;98245.94;5070144;28;20226;-81
2023/01/07 09:36:35;;;;;;;2.53;1.53;;;;;;;9.77;89.24;98244.66;5071213;28;20212;-79
2023/01/07 09:39:02;;;;;;;1.60;1.50;;;;;;;9.82;89.71;98247.88;5070684;28;20581;-81
2023/01/07 09:41:34;;;;;;;1.50;1.40;;;;;;;9.88;88.53;98242.19;5074015;28;20221;-79
2023/01/07 09:44:14;;;;;;;1.40;1.30;;;;;;;9.92;87.47;98241.06;5075486;28;20230;-79
2023/01/07 09:46:41;;;;;;;1.30;1.20;;;;;;;9.93;87.29;98240.13;5075325;28;20206;-82
2023/01/07 09:49:17;;;;;;;1.67;1.40;;;;;;;9.94;87.62;98231.25;5074407;28;20246;-81
2023/01/07 09:51:47;;;;;;;1.33;1.23;;;;;;;9.95;87.51;98231.16;5074997;28;20286;-81
2023/01/07 09:54:29;;;;;;;1.40;1.30;;;;;;;9.92;87.20;98225.22;5074531;28;20234;-78
2023/01/07 09:56:55;;;;;;;1.83;1.73;;;;;;;9.90;86.40;98227.94;5073894;28;20207;-78
2023/01/07 09:59:22;;;;;;;1.53;1.40;;;;;;;9.93;85.64;98219.00;5071859;28;20226;-78
2023/01/07 10:01:56;;;;;;;1.97;1.77;;;;;;;9.97;85.57;98215.22;5073305;28;20217;-80
2023/01/07 10:04:36;;;;;;;1.80;1.70;;;;;;;10.05;85.62;98207.66;5073792;28;20231;-78
2023/01/07 10:07:25;;;;;;;;;;;;;;;;;;;;;
2023/01/07 10:10:05;;;;;;;2.80;2.40;;;;;;;10.19;83.02;98189.97;5069999;28;20223;-79
2023/01/07 10:12:38;;;;;;;3.03;2.20;;;;;;;10.19;81.39;98183.81;5073275;28;20696;-78
2023/01/07 10:15:36;;;;;;;2.93;2.40;;;;;;;10.19;81.78;98186.47;5072687;28;20243;-79
2023/01/07 10:18:24;;;;;;;2.40;2.13;;;;;;;10.20;82.18;98190.78;5072979;28;20213;-80
2023/01/07 10:21:04;;;;;;;2.67;2.40;;;;;;;10.20;82.33;98185.50;5072323;28;20211;-84
2023/01/07 10:23:37;;;;;;;3.87;2.30;;;;;;;10.23;82.43;98177.38;5073448;28;20230;-81
2023/01/07 10:26:04;;;;;;;3.77;2.13;;;;;;;10.24;82.24;98166.72;5073673;28;20702;-82
2023/01/07 10:28:37;;;;;;;2.43;2.23;;;;;;;10.22;81.49;98162.50;5072857;28;20238;-82
2023/01/07 10:31:06;;;;;;;2.80;2.40;;;;;;;10.20;82.20;98164.38;5073127;28;20290;-82
2023/01/07 10:33:33;;;;;;;2.77;2.20;;;;;;;10.25;83.24;98170.19;5073563;28;20227;-82
2023/01/07 10:36:15;;;;;;;3.00;2.60;;;;;;;10.33;82.66;98162.63;5072588;28;20211;-82
2023/01/07 10:38:47;;;;;;;2.77;2.40;;;;;;;10.37;81.88;98154.38;5072927;28;20215;-82
2023/01/07 10:41:22;;;;;;;3.40;2.73;;;;;;;10.34;81.28;98148.47;5072962;28;20212;-81
2023/01/07 10:44:04;;;;;;;3.03;2.67;;;;;;;10.34;79.40;98130.78;5072841;28;20298;-81
2023/01/07 10:46:48;;;;;;;2.73;2.20;;;;;;;10.25;79.08;98138.50;5072911;28;20207;-81
2023/01/07 10:49:33;;;;;;;2.83;2.40;;;;;;;10.27;79.89;98139.28;5072674;28;20235;-81
2023/01/07 10:52:18;;;;;;;2.70;2.30;;;;;;;10.23;79.53;98127.22;5072234;28;20202;-81
2023/01/07 10:54:57;;;;;;;2.63;2.23;;;;;;;10.15;79.15;98121.59;5073313;28;20235;-83
2023/01/07 10:57:27;;;;;;;2.53;2.20;;;;;;;9.97;79.67;98112.25;5072846;28;20221;-81
2023/01/07 10:59:57;;;;;;;2.63;2.07;;;;;;;9.89;79.42;98106.63;5071083;28;20212;-81
2023/01/07 11:02:26;;;;;;;2.30;2.00;;;;;;;9.82;80.54;98105.34;5072913;28;20583;-81
2023/01/07 11:04:53;;;;;;;2.67;2.07;;;;;;;9.73;81.89;98112.06;5072854;28;20240;-82
2023/01/07 11:07:31;;;;;;;2.70;2.30;;;;;;;9.70;83.04;98121.97;5062233;28;20215;-81
2023/01/07 11:10:03;;;;;;;2.60;2.40;;;;;;;9.69;82.49;98113.25;5069756;28;20313;-82
2023/01/07 11:12:36;;;;;;;4.07;2.63;;;;;;;9.65;82.19;98097.69;5072583;28;20225;-82
2023/01/07 11:15:06;;;;;;;4.13;2.50;;;;;;;9.73;82.88;98098.03;5071858;28;20387;-80
2023/01/07 11:17:37;;;;;;;3.20;2.60;;;;;;;9.72;82.77;98094.53;5072640;28;20575;-93
2023/01/07 11:20:05;;;;;;;2.97;2.60;;;;;;;9.68;83.02;98086.94;5071565;28;20216;-77
2023/01/07 11:22:35;;;;;;;3.47;2.50;;;;;;;9.74;82.98;98083.91;5072030;28;20200;-80
2023/01/07 11:25:21;;;;;;;2.77;2.40;;;;;;;9.93;82.64;98079.06;5072576;28;20231;-79
2023/01/07 11:27:47;;;;;;;4.27;2.60;;;;;;;9.98;81.40;98079.63;5072142;28;20211;-79
2023/01/07 11:30:23;;;;;;;3.73;2.80;;;;;;;9.89;81.56;98069.66;5070776;28;20234;-79
2023/01/07 11:32:56;;;;;;;2.57;2.30;;;;;;;9.93;81.68;98060.59;5071910;28;20219;-78
2023/01/07 11:35:23;;;;;;;3.50;3.20;;;;;;;9.85;82.48;98063.75;5072247;28;20437;-78
2023/01/07 11:37:51;;;;;;;4.00;3.30;;;;;;;10.05;85.87;98070.34;5073032;28;20218;-81
2023/01/07 11:40:21;;;;;;;4.17;3.07;;;;;;;10.03;87.61;98077.50;5072000;28;20199;-77
2023/01/07 11:42:53;;;;;;;4.03;3.60;;;;;;;9.92;86.98;98059.72;5072753;28;20215;-80
2023/01/07 11:45:21;;;;;;;4.90;4.23;;;;;;;9.89;85.88;98059.09;5072848;28;20238;-78
2023/01/07 11:47:54;;;;;;;4.03;3.27;;;;;;;9.97;84.61;98046.25;5072854;28;20226;-79
2023/01/07 11:50:23;;;;;;;3.37;3.00;;;;;;;9.96;83.43;98050.66;5072126;28;20318;-79